Details From LFKF - Figari Sud Corse
To LIRS - GROSSETO
Flight Number -
Tags decoded
Created
Modified
Stats Distance 165 nm / 305 km
Max Altitude 0 ft / 0 m
Waypoints 5
Social Downloads 0
Likes 0
Share VATSIM

Download

Looking for another format? Having issues loading an existing format? Contact us
Advertisement - Login to hide

Notes

Requested: LFKF LFKJ LFKS LFKB LIRS

Route

LFKF LFKJ LFKS LFKB LIRS

ID Type Via Altitude Latitude Longitude Leg Dist Tot Dist Heading (true) Name
O LFKF APT - 0 ft / 0 m 41.50206˚ 9.09696˚ - 0 nm - Figari Sud Corse
LFKJ APT - 0 ft / 0 m 41.92289˚ 8.79959˚ 28 nm 28 nm 332° / 332° Napoleon Bonaparte
LFKS APT - 0 ft / 0 m 41.92462˚ 9.40532˚ 27 nm 55 nm 90° / 90° Solenzara
LFKB APT - 0 ft / 0 m 42.55251˚ 9.48371˚ 37 nm 93 nm 5° / 5° Bastia Poretta
O LIRS APT - 0 ft / 0 m 42.76028˚ 11.07198˚ 71 nm 164 nm 79° / 80° GROSSETO

Altitude Profile

Advertisement - Login to hide

Weather


0- 5 10 15 20 25 30 35+ Temperature / ° C

Clouds and Precipitation
Forecast for 2017-12-14 18:00 UTC. Updated 3 minutes ago

Ground ~20,000 ft ~40,000 ft Winds

LFKF

Details ICAO LFKF (FSC)
Name Figari Sud Corse
Region France
Timezone Europe/Paris (UTC+1.0)
Stats Elevation 87 ft / 27 m (AMSL)
Location 41.502064° 9.096960°
Runways 1
Magnetic Variation 2.378° E

METAR

LFKF 141500Z AUTO 26016KT 9999 BKN017 BKN024 OVC031 14/12 Q1012 TEMPO 26020G35KT

Decode

TAF

TAF LFKF 141400Z 1415/1515 26015G30KT 9999 -RA BKN020 BKN040 TEMPO 1415/1417 26020G35KT TEMPO 1505/1511 4000 RA BKN014 OVC050

Decode

Departure Runways

ID Width Length Bearing (true) Bearing (mag) Surface Threshold Offset Overrun Length
05 148 ft / 45 m 8,131 ft / 2,478 m 47.42° 45.04° Asphalt 0 ft / 0 m 0 ft / 0 m
23 148 ft / 45 m 8,131 ft / 2,478 m 227.44° 225.06° Asphalt 0 ft / 0 m 0 ft / 0 m

LIRS

Details ICAO LIRS (GRS)
Name GROSSETO
Region Italy
Timezone Europe/Rome (UTC+1.0)
Stats Elevation 15 ft / 5 m (AMSL)
Location 42.760275° 11.071980°
Runways 2
Magnetic Variation 2.810° E

METAR

LIRS 141455Z 18004KT 8000 FEW020 14/12 Q1010 RMK BKN SCT080 VIS MIN 8000 WIND THR03 18004KT WIND THR21 18004KT BLU

Decode

TAF

Not found

Destination Runways

ID Width Length Bearing (true) Bearing (mag) Surface Threshold Offset Overrun Length
03 148 ft / 45 m 9,826 ft / 2,995 m 30.87° 28.06° Asphalt 317 ft / 97 m 0 ft / 0 m
03R 80 ft / 24 m 7,731 ft / 2,356 m 30.70° 27.89° Asphalt 0 ft / 0 m 1,091 ft / 333 m
21 148 ft / 45 m 9,826 ft / 2,995 m 210.88° 208.07° Asphalt 0 ft / 0 m 0 ft / 0 m
21L 80 ft / 24 m 7,731 ft / 2,356 m 210.71° 207.90° Asphalt 0 ft / 0 m 875 ft / 267 m

Popular Alternatives